Time;durP1;ratioP1;P1;durP2;ratioP2;P2;SDS_P1;SDS_P2;PMS_P1;PMS_P2;Temp;Humidity;BMP_temperature;BMP_pressure;BME280_temperature;BME280_humidity;BME280_pressure;Samples;Min_cycle;Max_cycle;Signal;HPM_P1;HPM_P2
2022/12/20 00:01:17;;;;;;;4.57;2.45;;;9.00;99.90;;;;;;4910383;29;20051;-83
2022/12/20 00:03:43;;;;;;;4.82;2.40;;;9.00;99.90;;;;;;4918101;29;20043;-83
2022/12/20 00:06:10;;;;;;;3.47;2.83;;;8.90;99.90;;;;;;4920318;29;20487;-83
2022/12/20 00:08:37;;;;;;;4.95;2.47;;;8.90;99.90;;;;;;4903378;29;20084;-85
2022/12/20 00:11:04;;;;;;;5.75;2.75;;;8.90;99.90;;;;;;4917674;29;20032;-83
2022/12/20 00:13:31;;;;;;;5.97;2.72;;;9.00;99.90;;;;;;4902713;29;20054;-83
2022/12/20 00:16:17;;;;;;;5.72;2.25;;;8.90;99.90;;;;;;4902392;29;20036;-83
2022/12/20 00:18:44;;;;;;;4.82;2.25;;;8.90;99.90;;;;;;4907291;29;20063;-83
2022/12/20 00:21:12;;;;;;;6.53;2.53;;;8.90;99.90;;;;;;4916040;29;20046;-84
2022/12/20 00:23:38;;;;;;;6.28;2.38;;;9.00;99.90;;;;;;4918797;29;20100;-83
2022/12/20 00:26:06;;;;;;;4.05;2.88;;;9.00;99.90;;;;;;4917106;29;20048;-83
2022/12/20 00:28:33;;;;;;;6.80;2.47;;;9.10;99.90;;;;;;4902984;29;20040;-83
2022/12/20 00:30:59;;;;;;;4.72;2.78;;;9.10;99.90;;;;;;4916463;29;20371;-84
2022/12/20 00:33:25;;;;;;;4.40;2.88;;;9.10;99.90;;;;;;4901487;29;20072;-83
2022/12/20 00:35:53;;;;;;;5.20;2.22;;;9.10;99.90;;;;;;4902394;29;20519;-86
2022/12/20 00:38:18;;;;;;;4.68;2.17;;;9.10;99.90;;;;;;4903554;29;20100;-83
2022/12/20 00:40:44;;;;;;;6.68;2.58;;;9.20;99.90;;;;;;4901141;29;20051;-83
2022/12/20 00:43:10;;;;;;;3.60;2.72;;;9.10;99.90;;;;;;4916605;29;20048;-83
2022/12/20 00:45:35;;;;;;;3.97;2.50;;;9.10;99.90;;;;;;4916397;29;20067;-86
2022/12/20 00:48:01;;;;;;;4.65;2.08;;;9.10;99.90;;;;;;4898878;29;20044;-83
2022/12/20 00:50:26;;;;;;;6.70;2.25;;;9.20;99.90;;;;;;4906917;29;20036;-83
2022/12/20 00:52:52;;;;;;;5.20;1.98;;;9.20;99.90;;;;;;4919722;29;20131;-84
2022/12/20 00:55:17;;;;;;;4.47;1.80;;;9.20;99.90;;;;;;4902055;29;20051;-83
2022/12/20 00:57:43;;;;;;;5.32;2.47;;;9.30;99.90;;;;;;4902484;29;20051;-83
2022/12/20 01:00:09;;;;;;;4.35;2.17;;;9.20;99.90;;;;;;4916096;29;20070;-85
2022/12/20 01:02:34;;;;;;;4.28;2.17;;;9.30;99.90;;;;;;4900891;29;20724;-84
2022/12/20 01:05:00;;;;;;;2.58;1.92;;;9.30;99.90;;;;;;4914956;29;20040;-84
2022/12/20 01:07:25;;;;;;;4.50;2.30;;;9.20;99.90;;;;;;4897260;29;20040;-83
2022/12/20 01:09:51;;;;;;;4.53;2.38;;;9.20;99.90;;;;;;4919280;29;20051;-84
2022/12/20 01:12:17;;;;;;;2.05;1.80;;;9.20;99.90;;;;;;4915748;29;20047;-84
2022/12/20 01:14:43;;;;;;;4.68;2.45;;;9.30;99.90;;;;;;4917081;29;20071;-86
2022/12/20 01:17:09;;;;;;;5.68;2.05;;;9.20;99.90;;;;;;4910751;29;20040;-84
2022/12/20 01:19:34;;;;;;;16.60;2.70;;;9.20;99.90;;;;;;4899934;29;20040;-84
2022/12/20 01:22:00;;;;;;;2.95;1.75;;;9.20;99.90;;;;;;4916862;29;20051;-83
2022/12/20 01:24:26;;;;;;;3.80;2.28;;;9.20;99.90;;;;;;4917975;29;20051;-84
2022/12/20 01:26:51;;;;;;;3.78;2.40;;;9.20;99.90;;;;;;4918057;29;20131;-83
2022/12/20 01:29:17;;;;;;;5.18;2.50;;;9.20;99.90;;;;;;4901247;29;20032;-84
2022/12/20 01:31:43;;;;;;;2.85;2.20;;;9.20;99.90;;;;;;4903716;29;20055;-83
2022/12/20 01:34:09;;;;;;;4.65;2.25;;;9.20;99.90;;;;;;4915701;29;20036;-85
2022/12/20 01:36:38;;;;;;;6.03;2.53;;;9.10;99.90;;;;;;4900619;29;20428;-83
2022/12/20 01:39:15;;;;;;;4.72;2.35;;;9.10;99.90;;;;;;4914049;29;20040;-83
2022/12/20 01:41:42;;;;;;;4.50;1.80;;;9.10;99.90;;;;;;4931294;29;20502;-83
2022/12/20 01:44:16;;;;;;;4.35;2.25;;;9.20;99.90;;;;;;4913502;29;20096;-85
2022/12/20 01:46:43;;;;;;;2.55;1.67;;;9.10;99.90;;;;;;4912363;29;20040;-85
2022/12/20 01:49:09;;;;;;;2.83;1.95;;;9.10;99.90;;;;;;4898425;29;20036;-83
2022/12/20 01:51:43;;;;;;;5.35;2.20;;;9.10;99.90;;;;;;4912914;29;20040;-83
2022/12/20 01:54:14;;;;;;;4.30;2.13;;;9.10;99.90;;;;;;4899026;29;20032;-83
2022/12/20 01:56:44;;;;;;;3.47;2.08;;;9.00;99.90;;;;;;4902689;29;20052;-83
2022/12/20 01:59:11;;;;;;;2.30;1.85;;;9.10;99.90;;;;;;4900060;29;20045;-85
2022/12/20 02:01:36;;;;;;;5.05;2.38;;;9.10;99.90;;;;;;4898694;29;20074;-84
2022/12/20 02:04:02;;;;;;;3.05;2.10;;;9.10;99.90;;;;;;4911466;29;20507;-83
2022/12/20 02:06:28;;;;;;;3.08;1.85;;;9.20;99.90;;;;;;4915879;29;20040;-84
2022/12/20 02:08:57;;;;;;;4.30;1.80;;;9.20;99.90;;;;;;4899849;29;20040;-86
2022/12/20 02:11:31;;;;;;;3.70;2.25;;;9.20;99.90;;;;;;4898487;29;20036;-84
2022/12/20 02:14:00;;;;;;;2.92;2.05;;;9.30;99.90;;;;;;4928662;29;20036;-83
2022/12/20 02:16:28;;;;;;;2.53;1.65;;;9.30;99.90;;;;;;4929800;29;20444;-84
2022/12/20 02:19:05;;;;;;;2.92;1.52;;;9.30;99.90;;;;;;4929266;29;20040;-83
2022/12/20 02:21:48;;;;;;;2.00;1.77;;;9.30;99.90;;;;;;4899846;29;20100;-83
2022/12/20 02:24:47;;;;;;;4.07;1.88;;;9.40;99.90;;;;;;4918831;29;20099;-83
2022/12/20 02:27:51;;;;;;;5.35;2.35;;;9.40;99.90;;;;;;4901195;29;20044;-83
2022/12/20 02:30:21;;;;;;;3.03;1.70;;;9.40;99.90;;;;;;4909199;29;20119;-83
2022/12/20 02:33:04;;;;;;;2.38;1.65;;;9.40;99.90;;;;;;4913738;29;20059;-85
2022/12/20 02:35:33;;;;;;;8.50;2.50;;;9.40;99.90;;;;;;4908483;29;20503;-87
2022/12/20 02:38:04;;;;;;;3.50;2.28;;;9.40;99.90;;;;;;4798929;29;3469144;-83
2022/12/20 02:40:42;;;;;;;4.93;2.42;;;9.40;99.90;;;;;;4898188;29;20103;-83
2022/12/20 02:45:14;;;;;;;4.10;1.80;;;9.40;99.90;;;;;;4914507;29;20044;-84
2022/12/20 02:45:58;;;;;;;3.95;2.30;;;9.40;99.90;;;;;;4914245;29;20047;-83
2022/12/20 02:48:27;;;;;;;4.85;2.13;;;9.50;99.90;;;;;;4898629;29;20361;-84
2022/12/20 02:50:56;;;;;;;3.47;1.98;;;9.40;99.90;;;;;;4896493;29;20092;-83
2022/12/20 02:53:22;;;;;;;4.88;2.10;;;9.00;99.90;;;;;;4912854;29;20040;-83
2022/12/20 02:56:26;;;;;;;4.75;2.10;;;9.40;99.90;;;;;;4899601;29;20058;-83
2022/12/20 02:59:01;;;;;;;3.40;2.30;;;9.40;99.90;;;;;;4914911;29;20518;-84
2022/12/20 03:01:30;;;;;;;4.25;2.38;;;9.30;99.90;;;;;;4904492;29;20103;-84
2022/12/20 03:03:57;;;;;;;5.95;2.35;;;9.40;99.90;;;;;;4913712;29;20051;-83
2022/12/20 03:06:23;;;;;;;3.25;2.20;;;9.40;99.90;;;;;;4897283;29;20035;-83
2022/12/20 03:08:48;;;;;;;3.53;2.50;;;9.30;99.90;;;;;;4917455;29;20091;-85
2022/12/20 03:11:14;;;;;;;6.13;2.90;;;9.30;99.90;;;;;;4898082;29;20463;-84
2022/12/20 03:13:40;;;;;;;3.97;2.30;;;9.30;99.90;;;;;;4912714;29;20131;-83
2022/12/20 03:16:06;;;;;;;4.93;2.25;;;9.30;99.90;;;;;;4899176;29;20665;-83
2022/12/20 03:18:32;;;;;;;6.40;2.20;;;9.30;99.90;;;;;;4900782;29;20495;-83
2022/12/20 03:20:58;;;;;;;5.40;2.80;;;9.30;99.90;;;;;;4900134;29;20123;-83
2022/12/20 03:23:23;;;;;;;4.97;2.90;;;9.30;99.90;;;;;;4902929;29;20100;-85
2022/12/20 03:25:49;;;;;;;3.25;2.40;;;9.30;99.90;;;;;;4913791;29;20048;-86
2022/12/20 03:28:15;;;;;;;2.92;2.50;;;9.30;99.90;;;;;;4897077;29;20036;-83
2022/12/20 03:30:41;;;;;;;4.57;2.45;;;9.20;99.90;;;;;;4911154;29;20903;-83
2022/12/20 03:33:06;;;;;;;5.65;2.40;;;9.30;99.90;;;;;;4902226;29;20067;-83
2022/12/20 03:35:32;;;;;;;4.70;2.65;;;9.30;99.90;;;;;;4916630;29;20054;-83
2022/12/20 03:37:57;;;;;;;5.07;2.60;;;9.30;99.90;;;;;;4899841;29;20044;-86
2022/12/20 03:40:23;;;;;;;5.40;2.58;;;9.30;99.90;;;;;;4916596;29;20074;-83
2022/12/20 03:42:49;;;;;;;5.07;2.90;;;9.20;99.90;;;;;;4898255;29;20040;-84
2022/12/20 03:45:14;;;;;;;3.72;2.40;;;9.30;99.90;;;;;;4914698;29;20084;-84
2022/12/20 03:47:40;;;;;;;7.35;3.00;;;9.30;99.90;;;;;;4898742;29;20063;-87
2022/12/20 03:50:06;;;;;;;6.78;2.50;;;9.30;99.90;;;;;;4900734;29;20083;-84
2022/12/20 03:52:31;;;;;;;3.97;2.85;;;9.20;99.90;;;;;;4915608;29;20047;-84
2022/12/20 03:54:57;;;;;;;3.70;2.55;;;9.20;99.90;;;;;;4897977;29;20036;-84
2022/12/20 03:57:23;;;;;;;5.10;3.25;;;9.30;99.90;;;;;;4895178;29;20525;-83
2022/12/20 03:59:48;;;;;;;4.05;2.55;;;9.20;99.90;;;;;;4897116;29;20411;-84
2022/12/20 04:02:14;;;;;;;4.03;3.00;;;9.20;99.90;;;;;;4900227;29;20048;-84
2022/12/20 04:04:39;;;;;;;4.38;2.72;;;9.30;99.90;;;;;;4898487;29;20475;-83
2022/12/20 04:07:05;;;;;;;5.25;3.15;;;9.30;99.90;;;;;;4897318;29;20133;-83
2022/12/20 04:09:30;;;;;;;3.25;2.47;;;9.20;99.90;;;;;;4917612;29;20503;-85
2022/12/20 04:11:57;;;;;;;3.85;2.72;;;9.30;99.90;;;;;;4896839;29;20443;-84
2022/12/20 04:14:23;;;;;;;4.85;2.85;;;9.30;99.90;;;;;;4911972;29;20044;-84
2022/12/20 04:16:48;;;;;;;4.72;3.22;;;9.30;99.90;;;;;;4899545;29;20044;-85
2022/12/20 04:19:14;;;;;;;6.18;3.35;;;9.30;99.90;;;;;;4914369;29;20793;-83
2022/12/20 04:21:39;;;;;;;3.70;2.83;;;9.30;99.90;;;;;;4900043;29;20115;-84
2022/12/20 04:24:06;;;;;;;6.97;3.40;;;9.40;99.90;;;;;;4914418;29;20063;-83
2022/12/20 04:26:31;;;;;;;5.00;3.30;;;9.40;99.90;;;;;;4898252;29;20094;-83
2022/12/20 04:28:57;;;;;;;4.63;3.08;;;9.40;99.90;;;;;;4911890;29;20048;-83
2022/12/20 04:31:23;;;;;;;5.60;3.22;;;9.30;99.90;;;;;;4892138;29;20032;-83
2022/12/20 04:33:49;;;;;;;4.53;3.20;;;9.30;99.90;;;;;;4896375;29;20091;-84
2022/12/20 04:36:15;;;;;;;8.00;3.30;;;9.30;99.90;;;;;;4898800;29;20479;-84
2022/12/20 04:38:40;;;;;;;5.05;3.10;;;9.30;99.90;;;;;;4900495;29;20135;-84
2022/12/20 04:41:06;;;;;;;6.07;3.42;;;9.30;99.90;;;;;;4927604;29;20146;-86
2022/12/20 04:43:32;;;;;;;5.40;3.15;;;9.30;99.90;;;;;;4914477;29;20046;-85
2022/12/20 04:45:57;;;;;;;6.10;3.67;;;9.30;99.90;;;;;;4897031;29;20039;-86
2022/12/20 04:48:27;;;;;;;3.95;3.17;;;9.30;99.90;;;;;;4900324;29;20098;-84
2022/12/20 04:50:55;;;;;;;3.90;3.15;;;9.30;99.90;;;;;;4899624;29;20080;-84
2022/12/20 04:56:07;;;;;;;7.40;3.73;;;9.40;99.90;;;;;;4916882;29;20135;-83
2022/12/20 04:58:32;;;;;;;4.28;3.45;;;9.40;99.90;;;;;;4918464;29;20040;-85
2022/12/20 05:00:58;;;;;;;5.70;2.85;;;9.50;99.90;;;;;;4915547;29;20040;-83
2022/12/20 05:03:26;;;;;;;4.85;3.00;;;9.40;99.90;;;;;;4900124;29;20047;-86
2022/12/20 05:05:52;;;;;;;5.28;3.85;;;9.50;99.90;;;;;;4899824;29;20040;-87
2022/12/20 05:08:18;;;;;;;3.17;2.50;;;9.50;99.90;;;;;;4916331;29;20032;-87
2022/12/20 05:10:44;;;;;;;6.53;2.90;;;9.50;99.90;;;;;;4916165;29;20044;-86
2022/12/20 05:13:12;;;;;;;4.00;2.85;;;9.60;99.90;;;;;;4914491;29;20056;-86
2022/12/20 05:15:38;;;;;;;3.72;2.80;;;9.60;99.90;;;;;;4897960;29;20066;-85
2022/12/20 05:18:04;;;;;;;3.72;2.13;;;9.60;99.90;;;;;;4913679;29;20048;-85
2022/12/20 05:20:30;;;;;;;4.88;2.20;;;9.60;99.90;;;;;;4914449;29;20040;-87
2022/12/20 05:28:43;;;;;;;4.78;2.50;;;9.80;99.90;;;;;;4911407;29;20126;-86
2022/12/20 05:31:09;;;;;;;4.15;2.40;;;9.80;99.90;;;;;;4900097;29;20530;-87
2022/12/20 05:33:35;;;;;;;2.90;2.05;;;10.00;99.90;;;;;;4905451;29;20554;-88
2022/12/20 05:36:01;;;;;;;5.78;2.53;;;9.80;99.90;;;;;;4916998;29;20179;-88
2022/12/20 05:38:27;;;;;;;4.90;2.50;;;9.80;99.90;;;;;;4898911;29;20051;-86
2022/12/20 05:40:52;;;;;;;4.25;2.17;;;9.90;99.90;;;;;;4893465;29;20048;-84
2022/12/20 05:43:19;;;;;;;5.25;2.50;;;9.80;99.90;;;;;;4906150;29;20053;-84
2022/12/20 05:45:50;;;;;;;4.68;2.42;;;9.90;99.90;;;;;;4920722;29;20070;-85
2022/12/20 05:48:16;;;;;;;5.43;2.50;;;9.90;99.90;;;;;;4888308;29;20722;-85
2022/12/20 05:50:43;;;;;;;2.90;2.28;;;9.90;99.90;;;;;;4889366;29;20043;-84
2022/12/20 05:53:10;;;;;;;2.28;2.08;;;9.90;99.90;;;;;;4919866;29;20040;-85
2022/12/20 05:55:39;;;;;;;4.85;2.92;;;10.60;99.90;;;;;;4908285;29;20774;-84
2022/12/20 05:58:05;;;;;;;2.50;1.98;;;10.00;99.90;;;;;;4910694;29;20049;-86
2022/12/20 06:00:32;;;;;;;3.63;2.08;;;9.90;99.90;;;;;;4896022;29;20051;-86
2022/12/20 06:03:02;;;;;;;4.15;2.08;;;9.90;99.90;;;;;;4915556;29;20036;-86
2022/12/20 06:05:28;;;;;;;4.28;2.30;;;10.00;99.90;;;;;;4895663;29;20075;-86
2022/12/20 06:07:54;;;;;;;4.00;2.08;;;10.10;99.90;;;;;;4895208;29;20075;-86
2022/12/20 06:10:19;;;;;;;3.97;1.92;;;10.00;99.90;;;;;;4895995;29;20040;-83
2022/12/20 06:12:45;;;;;;;13.07;2.15;;;10.00;99.90;;;;;;4913769;29;20141;-87
2022/12/20 06:15:12;;;;;;;4.40;2.58;;;10.00;99.90;;;;;;4910723;29;20040;-84
2022/12/20 06:17:37;;;;;;;4.75;2.20;;;10.10;99.90;;;;;;4897072;29;20036;-87
2022/12/20 06:20:03;;;;;;;3.30;2.10;;;10.10;99.90;;;;;;4901474;29;20760;-84
2022/12/20 06:22:29;;;;;;;4.00;1.80;;;10.10;99.90;;;;;;4914414;29;20044;-86
2022/12/20 06:24:58;;;;;;;5.78;2.40;;;10.10;99.90;;;;;;4898057;29;20071;-86
2022/12/20 06:27:29;;;;;;;4.65;2.45;;;10.60;99.90;;;;;;4892919;29;20063;-87
2022/12/20 06:30:00;;;;;;;2.13;1.65;;;10.30;99.90;;;;;;4910197;29;20044;-87
2022/12/20 06:32:41;;;;;;;4.03;2.13;;;10.30;99.90;;;;;;4913240;29;20525;-82
2022/12/20 06:35:08;;;;;;;2.92;2.50;;;10.30;99.90;;;;;;4897054;29;20075;-86
2022/12/20 06:37:35;;;;;;;4.70;2.78;;;10.30;99.90;;;;;;4892706;29;20488;-87
2022/12/20 06:40:01;;;;;;;3.67;2.60;;;10.20;99.90;;;;;;4896150;29;20157;-87
2022/12/20 06:42:27;;;;;;;4.72;2.83;;;10.20;99.90;;;;;;4910447;29;20105;-86
2022/12/20 06:44:53;;;;;;;5.57;3.03;;;10.20;99.90;;;;;;4917862;29;20036;-87
2022/12/20 06:47:22;;;;;;;3.95;2.95;;;10.20;99.90;;;;;;4914770;29;20075;-86
2022/12/20 06:49:48;;;;;;;4.18;3.40;;;10.10;99.90;;;;;;4899001;29;20596;-86
2022/12/20 06:52:16;;;;;;;5.53;3.92;;;10.10;99.90;;;;;;4897287;29;20384;-86
2022/12/20 06:54:42;;;;;;;5.95;3.53;;;10.10;99.90;;;;;;4917006;29;20041;-86
2022/12/20 06:57:07;;;;;;;13.13;3.97;;;10.00;99.90;;;;;;4934584;29;20036;-87
2022/12/20 06:59:34;;;;;;;5.80;3.78;;;10.10;99.90;;;;;;4913397;29;20036;-86
2022/12/20 07:02:00;;;;;;;8.95;4.53;;;10.70;99.90;;;;;;4899968;29;20044;-86
2022/12/20 07:04:26;;;;;;;5.05;4.53;;;10.00;99.90;;;;;;4898271;29;20059;-86
2022/12/20 07:06:51;;;;;;;5.05;4.00;;;10.00;99.90;;;;;;4902131;29;20039;-86
2022/12/20 07:09:17;;;;;;;5.22;4.00;;;10.00;99.90;;;;;;4915625;29;20073;-86
2022/12/20 07:11:42;;;;;;;5.85;3.90;;;9.90;99.90;;;;;;4901353;29;20665;-86
2022/12/20 07:14:08;;;;;;;5.28;4.40;;;10.00;99.90;;;;;;4912605;29;20082;-86
2022/12/20 07:16:35;;;;;;;5.00;4.22;;;10.00;99.90;;;;;;4916162;29;20534;-86
2022/12/20 07:19:01;;;;;;;4.93;4.18;;;10.20;99.90;;;;;;4929672;29;20127;-85
2022/12/20 07:21:27;;;;;;;7.28;4.38;;;10.00;99.90;;;;;;4901297;29;20118;-85
2022/12/20 07:23:54;;;;;;;5.10;4.28;;;10.00;99.90;;;;;;4914215;29;20036;-86
2022/12/20 07:26:20;;;;;;;8.60;5.05;;;10.00;99.90;;;;;;4916134;29;20070;-87
2022/12/20 07:28:45;;;;;;;5.90;4.30;;;10.00;99.90;;;;;;4902816;29;20075;-89
2022/12/20 07:31:11;;;;;;;6.05;4.38;;;10.00;99.90;;;;;;4915357;29;20047;-86
2022/12/20 07:33:37;;;;;;;6.60;4.97;;;10.00;99.90;;;;;;4896291;29;20107;-86
2022/12/20 07:36:10;;;;;;;6.07;4.40;;;10.00;99.90;;;;;;4915112;29;20127;-87
2022/12/20 07:38:36;;;;;;;6.63;4.22;;;10.00;99.90;;;;;;4926355;29;20043;-86
2022/12/20 07:41:08;;;;;;;7.15;4.28;;;10.20;99.90;;;;;;4899794;29;20055;-86
2022/12/20 07:43:34;;;;;;;5.95;4.22;;;10.70;99.90;;;;;;4900948;29;20052;-84
2022/12/20 07:46:01;;;;;;;5.40;4.22;;;10.10;99.90;;;;;;4908486;29;20059;-87
2022/12/20 07:48:27;;;;;;;5.10;4.57;;;10.10;99.90;;;;;;4887880;29;20044;-86
2022/12/20 07:54:20;;;;;;;6.82;4.50;;;10.10;99.90;;;;;;4909152;29;20103;-87
2022/12/20 07:56:52;;;;;;;4.47;3.50;;;10.10;99.90;;;;;;4894157;29;20055;-88
2022/12/20 07:59:23;;;;;;;4.82;4.00;;;10.10;99.90;;;;;;4909107;29;20078;-86
2022/12/20 08:01:49;;;;;;;7.25;4.10;;;9.90;99.90;;;;;;4892669;29;20048;-86
2022/12/20 08:04:22;;;;;;;4.50;3.20;;;10.30;99.90;;;;;;4910641;29;20499;-87
2022/12/20 08:06:49;;;;;;;4.18;3.55;;;10.00;99.90;;;;;;4891765;29;20799;-89
2022/12/20 08:09:15;;;;;;;6.80;3.50;;;10.10;99.90;;;;;;4893147;29;20047;-87
2022/12/20 08:11:45;;;;;;;6.57;3.25;;;10.10;99.90;;;;;;4906783;29;20048;-86
2022/12/20 08:14:11;;;;;;;4.40;3.00;;;10.70;99.90;;;;;;4891214;29;20045;-86
2022/12/20 08:16:37;;;;;;;3.75;2.80;;;10.10;99.90;;;;;;4908821;29;20059;-86
2022/12/20 08:19:03;;;;;;;3.38;2.42;;;10.10;99.90;;;;;;4910755;29;20035;-87
2022/12/20 08:21:29;;;;;;;4.47;2.63;;;10.20;99.90;;;;;;4895120;29;20043;-86
2022/12/20 08:23:55;;;;;;;4.13;2.75;;;10.30;99.90;;;;;;4898135;29;20741;-87
2022/12/20 08:26:21;;;;;;;5.05;2.53;;;10.20;99.90;;;;;;4912869;29;20143;-86
2022/12/20 08:28:47;;;;;;;5.55;2.17;;;10.30;99.90;;;;;;4911186;29;20048;-88
2022/12/20 08:31:13;;;;;;;6.43;1.95;;;10.30;99.90;;;;;;4922525;28;20044;-83
2022/12/20 08:33:40;;;;;;;6.18;2.70;;;10.30;99.90;;;;;;4900601;29;20186;-83
2022/12/20 08:36:10;;;;;;;3.65;2.08;;;10.40;99.90;;;;;;4914265;29;20036;-84
2022/12/20 08:38:40;;;;;;;4.05;1.80;;;10.40;99.90;;;;;;4907456;29;20044;-85
2022/12/20 08:41:16;;;;;;;3.45;1.90;;;10.90;99.90;;;;;;4900593;29;20081;-85
2022/12/20 08:43:43;;;;;;;4.85;2.42;;;11.00;99.90;;;;;;4911573;29;20036;-86
2022/12/20 08:46:16;;;;;;;2.90;2.20;;;10.40;99.90;;;;;;4900115;29;20035;-86
2022/12/20 08:48:41;;;;;;;3.25;1.80;;;10.40;99.90;;;;;;4899643;29;20039;-86
2022/12/20 08:51:09;;;;;;;4.80;1.90;;;10.30;99.90;;;;;;4883170;29;20044;-86
2022/12/20 08:53:35;;;;;;;4.05;1.65;;;10.40;99.90;;;;;;4898010;29;20091;-86
2022/12/20 08:56:14;;;;;;;5.43;1.92;;;10.50;99.90;;;;;;4900828;29;20059;-86
2022/12/20 08:58:41;;;;;;;6.03;2.03;;;10.40;99.90;;;;;;4913227;29;20046;-86
2022/12/20 09:01:11;;;;;;;5.25;1.77;;;10.40;99.90;;;;;;4898686;29;20099;-86
2022/12/20 09:03:41;;;;;;;3.25;1.52;;;10.60;99.90;;;;;;4915813;29;20044;-86
2022/12/20 09:06:27;;;;;;;2.38;1.60;;;10.40;99.90;;;;;;4913117;29;20104;-85
2022/12/20 09:08:54;;;;;;;2.53;1.70;;;10.50;99.90;;;;;;4900543;29;20044;-86
2022/12/20 09:11:23;;;;;;;2.92;1.75;;;10.40;99.90;;;;;;4912373;29;20086;-86
2022/12/20 09:13:51;;;;;;;4.40;2.15;;;10.40;99.90;;;;;;4914839;29;20044;-85
2022/12/20 09:16:20;;;;;;;3.50;1.80;;;10.90;99.90;;;;;;4913824;29;20100;-85
2022/12/20 09:18:50;;;;;;;6.38;2.28;;;10.40;99.90;;;;;;4910305;29;20479;-85
2022/12/20 09:21:16;;;;;;;4.22;1.60;;;10.40;99.90;;;;;;4911844;29;20036;-85
2022/12/20 09:23:42;;;;;;;3.40;1.45;;;10.50;99.90;;;;;;4913532;29;20135;-86
2022/12/20 09:26:11;;;;;;;4.40;1.75;;;10.50;99.90;;;;;;4914385;29;20140;-86
2022/12/20 09:28:37;;;;;;;7.72;1.38;;;10.60;99.90;;;;;;4912611;29;20044;-85
2022/12/20 09:31:05;;;;;;;3.70;1.50;;;10.60;99.90;;;;;;4913862;29;20099;-86
2022/12/20 09:33:38;;;;;;;5.45;2.20;;;10.60;99.90;;;;;;4912719;29;20048;-85
2022/12/20 09:36:06;;;;;;;5.20;1.70;;;10.60;99.90;;;;;;4897988;29;20040;-85
2022/12/20 09:38:31;;;;;;;3.25;1.65;;;10.60;99.90;;;;;;4897216;29;20576;-84
2022/12/20 09:41:01;;;;;;;4.50;1.55;;;10.60;99.90;;;;;;4912205;29;20068;-86
2022/12/20 09:43:50;;;;;;;2.60;1.40;;;10.60;99.90;;;;;;4896729;29;20082;-85
2022/12/20 09:46:17;;;;;;;5.38;1.63;;;10.60;99.90;;;;;;4912361;29;20071;-85
2022/12/20 09:48:48;;;;;;;5.28;1.75;;;10.60;99.90;;;;;;4897205;29;20062;-86
2022/12/20 09:51:55;;;;;;;4.05;1.65;;;10.60;99.90;;;;;;4911770;29;20048;-85
2022/12/20 09:54:36;;;;;;;5.03;2.50;;;10.60;99.90;;;;;;4895482;29;20254;-85
2022/12/20 09:57:17;;;;;;;4.68;2.58;;;10.50;99.90;;;;;;4897121;29;21533;-86
2022/12/20 09:59:43;;;;;;;2.95;1.70;;;10.60;99.90;;;;;;4911936;29;20099;-85
2022/12/20 10:02:11;;;;;;;3.35;2.35;;;10.50;99.90;;;;;;4896421;29;20048;-85
2022/12/20 10:04:38;;;;;;;3.90;1.75;;;10.50;99.90;;;;;;4911000;29;20044;-85
2022/12/20 10:07:26;;;;;;;4.20;1.73;;;10.00;99.90;;;;;;4911429;29;20470;-85
2022/12/20 10:10:07;;;;;;;3.95;1.55;;;10.50;99.90;;;;;;4910228;29;20048;-85
2022/12/20 10:12:52;;;;;;;4.28;1.90;;;10.50;99.90;;;;;;4911510;29;20071;-85
2022/12/20 10:15:30;;;;;;;2.80;1.60;;;10.40;99.90;;;;;;4910892;29;20126;-85
2022/12/20 10:18:11;;;;;;;8.15;1.70;;;10.30;99.90;;;;;;4910457;29;20094;-85
2022/12/20 10:21:03;;;;;;;6.13;2.30;;;10.40;99.90;;;;;;4923729;29;20098;-86
2022/12/20 10:23:35;;;;;;;3.33;1.90;;;10.30;99.90;;;;;;4893977;29;20052;-84
2022/12/20 10:26:01;;;;;;;4.35;2.42;;;10.30;99.90;;;;;;4909429;29;20059;-85
2022/12/20 10:28:34;;;;;;;6.15;2.63;;;10.30;99.90;;;;;;4909307;29;20036;-85
2022/12/20 10:31:06;;;;;;;4.68;2.22;;;10.30;99.90;;;;;;4910936;29;20123;-85
2022/12/20 10:33:33;;;;;;;3.80;1.90;;;10.30;99.90;;;;;;4910444;29;20076;-85
2022/12/20 10:36:18;;;;;;;5.75;1.90;;;10.20;99.90;;;;;;4909681;29;20048;-85
2022/12/20 10:38:50;;;;;;;4.32;1.80;;;10.30;99.90;;;;;;4910101;29;20794;-85
2022/12/20 10:41:22;;;;;;;5.07;2.30;;;10.30;99.90;;;;;;4892702;29;20070;-85
2022/12/20 10:44:17;;;;;;;2.72;1.98;;;10.30;99.90;;;;;;4893694;29;20130;-85
2022/12/20 10:46:47;;;;;;;5.03;1.77;;;10.30;99.90;;;;;;4893686;29;20107;-85
2022/12/20 10:49:37;;;;;;;6.68;2.15;;;10.30;99.90;;;;;;4908023;29;20043;-85
2022/12/20 10:52:08;;;;;;;4.60;2.17;;;10.30;99.90;;;;;;4907907;29;20715;-85
2022/12/20 10:54:37;;;;;;;2.95;2.05;;;10.30;99.90;;;;;;4895934;29;20644;-85
2022/12/20 10:57:33;;;;;;;4.43;2.00;;;10.30;99.90;;;;;;4893852;29;20036;-85
2022/12/20 11:00:04;;;;;;;4.28;2.45;;;10.20;99.90;;;;;;4895172;29;20073;-85
2022/12/20 11:03:00;;;;;;;4.72;2.22;;;10.30;99.90;;;;;;4910582;29;20040;-85
2022/12/20 11:05:26;;;;;;;4.47;2.38;;;10.20;99.90;;;;;;4894468;29;21391;-85
2022/12/20 11:08:16;;;;;;;2.65;1.75;;;10.20;99.90;;;;;;4894998;29;20047;-85
2022/12/20 11:10:42;;;;;;;6.70;2.65;;;10.30;99.90;;;;;;4892544;29;20435;-85
2022/12/20 11:13:25;;;;;;;3.35;2.45;;;11.10;99.90;;;;;;4895767;29;20048;-85
2022/12/20 11:15:55;;;;;;;5.68;2.40;;;10.30;99.90;;;;;;4894056;29;20130;-85
2022/12/20 11:18:27;;;;;;;4.90;2.33;;;10.30;99.90;;;;;;4892606;29;20048;-85
2022/12/20 11:21:26;;;;;;;5.15;2.58;;;10.30;99.90;;;;;;4908415;29;20411;-85
2022/12/20 11:24:33;;;;;;;4.07;2.13;;;10.40;99.90;;;;;;4909959;29;20045;-85
2022/12/20 11:27:10;;;;;;;7.95;2.45;;;10.30;99.90;;;;;;4892667;29;20040;-85
2022/12/20 11:30:36;;;;;;;4.47;2.40;;;10.40;99.90;;;;;;4910108;29;20079;-86
2022/12/20 11:33:39;;;;;;;4.00;2.00;;;10.40;99.90;;;;;;4893538;29;20483;-85
2022/12/20 11:37:00;;;;;;;5.65;3.13;;;10.40;99.90;;;;;;4910574;29;20639;-85
2022/12/20 11:39:48;;;;;;;4.95;2.30;;;10.30;99.90;;;;;;4911801;29;20050;-85
2022/12/20 11:42:51;;;;;;;3.70;1.90;;;10.40;99.90;;;;;;4896896;29;20488;-85
2022/12/20 11:45:41;;;;;;;4.28;2.05;;;10.40;99.90;;;;;;4909884;29;20084;-85
2022/12/20 11:48:40;;;;;;;4.10;2.03;;;10.40;99.90;;;;;;4908726;29;20524;-85
2022/12/20 11:51:38;;;;;;;5.18;2.10;;;10.40;99.90;;;;;;4893108;29;20176;-85
2022/12/20 11:54:56;;;;;;;4.80;2.22;;;10.50;99.90;;;;;;4897441;29;20040;-85
2022/12/20 11:57:34;;;;;;;4.70;2.72;;;10.40;99.90;;;;;;4902191;29;20052;-86
2022/12/20 12:00:12;;;;;;;2.50;2.03;;;10.40;99.90;;;;;;4895278;29;20044;-85
2022/12/20 12:02:52;;;;;;;3.40;2.03;;;10.30;99.90;;;;;;4897374;29;20047;-85
2022/12/20 12:05:40;;;;;;;3.95;2.20;;;10.40;99.90;;;;;;4913706;29;20044;-85
2022/12/20 12:08:30;;;;;;;5.20;2.40;;;10.40;99.90;;;;;;4911927;29;20040;-85
2022/12/20 12:11:01;;;;;;;3.33;2.03;;;11.00;99.90;;;;;;4901764;29;20035;-85
2022/12/20 12:13:31;;;;;;;6.65;2.30;;;10.40;99.90;;;;;;4896378;29;20054;-85
2022/12/20 12:16:16;;;;;;;2.83;2.33;;;10.40;99.90;;;;;;4913795;29;20050;-85
2022/12/20 12:18:42;;;;;;;5.50;2.90;;;10.40;99.90;;;;;;4912819;29;20047;-85
2022/12/20 12:21:20;;;;;;;5.00;2.92;;;10.50;99.90;;;;;;4911852;29;20087;-85
2022/12/20 12:24:07;;;;;;;4.78;2.47;;;10.30;99.90;;;;;;4928184;29;20557;-85
2022/12/20 12:26:38;;;;;;;3.83;2.95;;;10.40;99.90;;;;;;4911365;29;20448;-85
2022/12/20 12:29:09;;;;;;;4.10;2.75;;;10.30;99.90;;;;;;4910531;29;20056;-85
2022/12/20 12:31:48;;;;;;;4.70;2.97;;;10.30;99.90;;;;;;4911922;29;20040;-85
2022/12/20 12:34:19;;;;;;;5.95;3.15;;;10.30;99.90;;;;;;4896221;29;20056;-85
2022/12/20 12:37:24;;;;;;;4.50;3.42;;;10.30;99.90;;;;;;4909616;29;20085;-85
2022/12/20 12:40:05;;;;;;;7.10;3.97;;;10.30;99.90;;;;;;4912903;29;20054;-85
2022/12/20 12:43:08;;;;;;;5.68;2.90;;;10.30;99.90;;;;;;4912289;29;20051;-85
2022/12/20 12:45:46;;;;;;;4.07;2.58;;;10.30;99.90;;;;;;4912183;29;20052;-85
2022/12/20 12:48:27;;;;;;;4.57;3.33;;;10.30;99.90;;;;;;4912286;29;20051;-85
2022/12/20 12:50:55;;;;;;;6.05;3.70;;;10.30;99.90;;;;;;4910320;29;20171;-85
2022/12/20 12:53:27;;;;;;;4.10;3.63;;;10.30;99.90;;;;;;4912322;29;20048;-85
2022/12/20 12:55:53;;;;;;;6.18;3.63;;;10.60;99.90;;;;;;4913574;29;20098;-85
2022/12/20 12:58:22;;;;;;;4.97;3.80;;;10.30;99.90;;;;;;4912849;29;20055;-85
2022/12/20 13:00:52;;;;;;;5.63;3.45;;;10.80;99.90;;;;;;4912123;29;20159;-85
2022/12/20 13:03:37;;;;;;;4.55;3.70;;;10.30;99.90;;;;;;4894794;29;20103;-86
2022/12/20 13:06:21;;;;;;;6.88;4.18;;;10.30;99.90;;;;;;4912396;29;20442;-86
2022/12/20 13:09:08;;;;;;;5.70;3.63;;;10.30;99.90;;;;;;4912713;29;20051;-85
2022/12/20 13:11:38;;;;;;;5.10;3.65;;;10.30;99.90;;;;;;4909851;29;20131;-85
2022/12/20 13:14:17;;;;;;;6.38;4.13;;;10.30;99.90;;;;;;4913387;29;20455;-85
2022/12/20 13:16:47;;;;;;;7.32;4.45;;;10.20;99.90;;;;;;4912353;29;20559;-85
2022/12/20 13:19:24;;;;;;;4.72;3.90;;;10.60;99.90;;;;;;4912716;29;20036;-85
2022/12/20 13:22:10;;;;;;;4.35;3.95;;;10.10;99.90;;;;;;4910655;29;20036;-85
2022/12/20 13:24:47;;;;;;;6.72;5.22;;;10.20;99.90;;;;;;4894918;29;20143;-86